Time;durP1;ratioP1;P1;durP2;ratioP2;P2;SDS_P1;SDS_P2;PMS_P1;PMS_P2;Temp;Humidity;BMP_temperature;BMP_pressure;BME280_temperature;BME280_humidity;BME280_pressure;Samples;Min_cycle;Max_cycle;Signal;HPM_P1;HPM_P2
2021/07/08 02:45:59;;;;;;;5.28;1.90;;;22.50;81.00;;;;;;5328456;24;20065;-75
2021/07/08 02:48:27;;;;;;;4.53;2.10;;;22.50;81.00;;;;;;4707396;30;20040;-75
2021/07/08 02:50:55;;;;;;;5.80;2.40;;;22.50;81.30;;;;;;4708726;30;20029;-75
2021/07/08 02:53:21;;;;;;;4.20;1.52;;;22.50;81.30;;;;;;4708343;30;20048;-75
2021/07/08 02:55:47;;;;;;;6.43;2.73;;;22.60;81.50;;;;;;4709031;30;20030;-75
2021/07/08 02:58:13;;;;;;;3.20;2.20;;;22.60;81.60;;;;;;4683918;30;20333;-75
2021/07/08 03:00:39;;;;;;;3.85;2.40;;;22.50;81.60;;;;;;4705824;30;20037;-75
2021/07/08 03:03:06;;;;;;;3.20;2.10;;;22.60;81.70;;;;;;4707901;30;20053;-74
2021/07/08 03:05:32;;;;;;;7.25;2.40;;;22.50;81.50;;;;;;4709055;30;20038;-75
2021/07/08 03:07:59;;;;;;;3.88;2.50;;;22.50;81.70;;;;;;4708745;30;20029;-75
2021/07/08 03:10:27;;;;;;;3.35;2.72;;;22.50;81.80;;;;;;4707953;30;20056;-74
2021/07/08 03:12:53;;;;;;;3.00;2.58;;;22.50;82.00;;;;;;4693393;30;20042;-75
2021/07/08 03:15:20;;;;;;;3.15;2.78;;;22.50;82.00;;;;;;4702244;30;20313;-74
2021/07/08 03:17:47;;;;;;;4.25;2.78;;;22.50;82.30;;;;;;4701668;30;20033;-74
2021/07/08 03:20:17;;;;;;;3.88;2.83;;;22.40;82.40;;;;;;4707998;30;20095;-75
2021/07/08 03:22:43;;;;;;;3.92;2.92;;;22.50;82.60;;;;;;4708909;30;20106;-76
2021/07/08 03:25:10;;;;;;;6.55;3.25;;;22.50;82.50;;;;;;4709015;30;20224;-75
2021/07/08 03:27:36;;;;;;;5.53;2.88;;;22.50;82.40;;;;;;4733106;30;20029;-74
2021/07/08 03:30:07;;;;;;;10.65;3.75;;;22.50;82.40;;;;;;4707819;30;20328;-75
2021/07/08 03:32:33;;;;;;;4.38;2.95;;;22.60;82.10;;;;;;4707485;30;20089;-74
2021/07/08 03:34:58;;;;;;;4.93;3.17;;;22.60;82.00;;;;;;4708882;30;20029;-75
2021/07/08 03:37:24;;;;;;;4.28;2.75;;;22.70;82.00;;;;;;4708643;30;20033;-75
2021/07/08 03:39:51;;;;;;;4.13;2.97;;;22.70;81.50;;;;;;4708779;30;20194;-75
2021/07/08 03:42:17;;;;;;;3.13;2.25;;;22.70;81.50;;;;;;4708718;30;20359;-74
2021/07/08 03:44:43;;;;;;;2.75;2.25;;;22.80;81.40;;;;;;4707684;30;20025;-75
2021/07/08 03:47:08;;;;;;;3.88;2.70;;;22.80;81.20;;;;;;4681317;30;20117;-75
2021/07/08 03:49:34;;;;;;;3.38;2.88;;;22.80;81.20;;;;;;4697345;30;20037;-75
2021/07/08 03:52:00;;;;;;;8.55;2.45;;;22.80;81.30;;;;;;4696817;30;20025;-75
2021/07/08 03:54:26;;;;;;;4.32;2.30;;;22.80;81.30;;;;;;4702918;30;20108;-76
2021/07/08 03:56:51;;;;;;;2.35;1.88;;;22.80;81.20;;;;;;4698594;30;20037;-74
2021/07/08 03:59:17;;;;;;;3.92;2.38;;;22.80;81.10;;;;;;4710257;30;20037;-77
2021/07/08 04:01:43;;;;;;;4.82;2.17;;;22.90;80.90;;;;;;4707499;30;20026;-76
2021/07/08 04:04:09;;;;;;;2.83;2.00;;;22.90;80.60;;;;;;4709565;30;20494;-75
2021/07/08 04:06:35;;;;;;;4.10;2.58;;;23.00;80.40;;;;;;4698997;30;20128;-75
2021/07/08 04:09:00;;;;;;;4.88;2.25;;;23.00;80.30;;;;;;4711088;30;20059;-76
2021/07/08 04:11:26;;;;;;;2.42;1.98;;;23.00;80.30;;;;;;4690291;30;20314;-75
2021/07/08 04:13:52;;;;;;;4.95;2.47;;;23.10;80.20;;;;;;4704369;30;20056;-76
2021/07/08 04:16:18;;;;;;;5.20;2.22;;;23.10;80.20;;;;;;4698495;30;20314;-75
2021/07/08 04:18:44;;;;;;;5.10;2.55;;;23.10;80.30;;;;;;4696085;30;20259;-76
2021/07/08 04:21:10;;;;;;;8.73;3.08;;;23.00;80.60;;;;;;4698996;30;20101;-75
2021/07/08 04:23:35;;;;;;;6.65;2.90;;;23.00;81.00;;;;;;4704163;30;20045;-75
2021/07/08 04:26:01;;;;;;;6.30;2.67;;;23.00;80.90;;;;;;4694324;30;20037;-75
2021/07/08 04:28:29;;;;;;;4.20;2.60;;;23.10;80.70;;;;;;4699099;30;20125;-75
2021/07/08 04:30:55;;;;;;;14.77;3.95;;;23.20;80.40;;;;;;4710464;30;20038;-76
2021/07/08 04:33:20;;;;;;;6.60;2.80;;;23.20;80.60;;;;;;4704802;30;20099;-75
2021/07/08 04:35:46;;;;;;;11.65;3.47;;;23.30;81.70;;;;;;4705557;30;20030;-75
2021/07/08 04:38:13;;;;;;;4.05;2.85;;;23.30;81.60;;;;;;4705070;30;20037;-75
2021/07/08 04:40:41;;;;;;;12.68;6.35;;;23.30;81.50;;;;;;4684068;30;20061;-76
2021/07/08 04:43:09;;;;;;;5.78;3.53;;;23.40;82.40;;;;;;4705923;30;20090;-74
2021/07/08 04:45:36;;;;;;;8.93;3.60;;;23.30;81.40;;;;;;4698062;30;20072;-77
2021/07/08 04:48:02;;;;;;;5.97;2.90;;;23.30;82.00;;;;;;4693133;30;20034;-75
2021/07/08 04:50:28;;;;;;;3.38;3.08;;;23.30;82.10;;;;;;4698411;30;20038;-76
2021/07/08 04:52:54;;;;;;;9.55;3.33;;;23.30;81.70;;;;;;4699650;30;20045;-75
2021/07/08 04:55:22;;;;;;;7.47;3.45;;;23.40;81.10;;;;;;4696084;30;20048;-75
2021/07/08 04:57:49;;;;;;;5.82;3.80;;;23.50;81.70;;;;;;4701316;30;20037;-76
2021/07/08 05:00:18;;;;;;;5.57;3.10;;;23.70;80.70;;;;;;4692784;30;20105;-75
2021/07/08 05:02:44;;;;;;;5.78;3.65;;;23.70;80.40;;;;;;4693339;30;20041;-75
2021/07/08 05:05:11;;;;;;;5.18;4.00;;;23.70;80.40;;;;;;4699395;30;20049;-75
2021/07/08 05:07:38;;;;;;;9.10;4.10;;;23.70;80.90;;;;;;4694541;30;20037;-75
2021/07/08 05:10:07;;;;;;;9.38;4.57;;;23.70;80.80;;;;;;4706413;30;20033;-75
2021/07/08 05:12:32;;;;;;;8.48;4.50;;;23.70;81.10;;;;;;4676651;30;20038;-75
2021/07/08 05:14:58;;;;;;;6.45;4.18;;;23.70;80.40;;;;;;4697831;30;20214;-75
2021/07/08 05:17:25;;;;;;;14.77;4.47;;;23.80;80.40;;;;;;4694508;30;20041;-75
2021/07/08 05:19:51;;;;;;;7.57;3.70;;;23.90;80.20;;;;;;4683226;30;20049;-75
2021/07/08 05:22:20;;;;;;;5.20;4.07;;;24.00;79.70;;;;;;4686731;30;20033;-75
2021/07/08 05:24:46;;;;;;;11.75;3.70;;;24.20;79.50;;;;;;4690373;30;20038;-75
2021/07/08 05:27:15;;;;;;;6.57;4.15;;;24.60;78.10;;;;;;4686289;30;20041;-75
2021/07/08 05:29:45;;;;;;;6.32;4.03;;;25.40;76.40;;;;;;4691242;30;20030;-75
2021/07/08 05:32:14;;;;;;;6.15;4.28;;;26.30;72.60;;;;;;4689569;30;20121;-74
2021/07/08 05:34:41;;;;;;;4.43;3.90;;;26.90;69.50;;;;;;4694516;30;20080;-75
2021/07/08 05:37:07;;;;;;;;;;;27.10;68.20;;;;;;4694127;30;20034;-75
2021/07/08 05:39:33;;;;;;;5.90;4.25;;;27.50;68.40;;;;;;4701389;30;20176;-74
2021/07/08 05:41:59;;;;;;;9.07;4.00;;;28.10;65.50;;;;;;4689640;30;20042;-74
2021/07/08 05:44:24;;;;;;;6.80;5.32;;;28.60;64.00;;;;;;4689311;30;20084;-76
2021/07/08 05:46:50;;;;;;;8.85;5.45;;;28.80;63.00;;;;;;4699478;30;20080;-75
2021/07/08 05:49:16;;;;;;;10.03;5.37;;;29.00;61.70;;;;;;4692308;30;20033;-74
2021/07/08 05:51:42;;;;;;;12.25;5.00;;;29.20;61.40;;;;;;4689708;30;20109;-76
2021/07/08 05:54:07;;;;;;;6.07;4.40;;;29.40;61.30;;;;;;4680467;30;20026;-75
2021/07/08 05:56:34;;;;;;;9.67;5.17;;;29.60;60.00;;;;;;4684754;30;20042;-75
2021/07/08 05:59:00;;;;;;;6.07;4.33;;;29.50;59.80;;;;;;4688683;30;20249;-75
2021/07/08 06:01:27;;;;;;;5.28;4.45;;;29.50;60.30;;;;;;4674794;30;20584;-75
2021/07/08 06:03:52;;;;;;;9.90;5.70;;;29.60;60.20;;;;;;4688501;30;20034;-75
2021/07/08 06:06:18;;;;;;;6.90;4.97;;;29.80;59.50;;;;;;4695695;30;20086;-74
2021/07/08 06:08:47;;;;;;;6.05;4.70;;;29.60;59.70;;;;;;4696300;30;20034;-74
2021/07/08 06:11:13;;;;;;;9.77;4.70;;;29.30;61.00;;;;;;4685582;30;20031;-74
2021/07/08 06:13:39;;;;;;;8.05;5.43;;;29.30;61.20;;;;;;4693219;30;20026;-75
2021/07/08 06:16:05;;;;;;;9.50;5.53;;;29.30;61.60;;;;;;4687634;30;20258;-75
2021/07/08 06:18:31;;;;;;;11.65;4.22;;;29.30;61.10;;;;;;4692030;30;20037;-75
2021/07/08 06:20:57;;;;;;;11.05;5.85;;;29.20;62.10;;;;;;4687080;30;20077;-75
2021/07/08 06:23:23;;;;;;;8.50;4.60;;;29.30;60.70;;;;;;4697227;30;20030;-74
2021/07/08 06:25:50;;;;;;;5.22;4.57;;;29.30;62.00;;;;;;4686259;30;20071;-76
2021/07/08 06:28:17;;;;;;;7.18;4.47;;;29.40;62.40;;;;;;4688436;30;20076;-75
2021/07/08 06:30:44;;;;;;;8.88;5.20;;;29.60;61.60;;;;;;4678263;30;20599;-74
2021/07/08 06:33:10;;;;;;;8.68;4.75;;;29.50;60.10;;;;;;4689274;30;20249;-74
2021/07/08 06:35:36;;;;;;;7.05;4.95;;;29.30;60.70;;;;;;4690915;30;20044;-74
2021/07/08 06:38:03;;;;;;;7.93;4.90;;;29.30;61.60;;;;;;4692066;30;20060;-74
2021/07/08 06:40:28;;;;;;;12.95;5.40;;;29.30;62.20;;;;;;4683772;30;20134;-75
2021/07/08 06:42:57;;;;;;;7.20;4.40;;;29.30;61.00;;;;;;4678718;30;20325;-74
2021/07/08 06:45:23;;;;;;;7.53;4.35;;;29.40;62.90;;;;;;4688280;30;20045;-76
2021/07/08 06:47:54;;;;;;;5.85;4.38;;;29.60;61.20;;;;;;4689871;30;20050;-75
2021/07/08 06:50:20;;;;;;;7.15;4.90;;;29.40;60.60;;;;;;4678663;30;20070;-75
2021/07/08 06:52:47;;;;;;;7.93;4.60;;;29.50;61.00;;;;;;4713364;30;20057;-76
2021/07/08 06:55:13;;;;;;;7.78;4.55;;;29.80;60.60;;;;;;4691901;30;20023;-75
2021/07/08 06:57:51;;;;;;;6.63;4.78;;;29.70;60.40;;;;;;4687820;30;20057;-75
2021/07/08 07:00:33;;;;;;;11.50;4.90;;;29.60;60.60;;;;;;4687606;30;20041;-74
2021/07/08 07:02:59;;;;;;;8.73;4.30;;;29.50;63.60;;;;;;4685819;30;20022;-75
2021/07/08 07:05:27;;;;;;;5.78;5.00;;;29.50;61.20;;;;;;4686888;30;20356;-75
2021/07/08 07:07:53;;;;;;;11.35;5.45;;;29.50;60.50;;;;;;4690289;30;20252;-75
2021/07/08 07:10:21;;;;;;;6.45;5.05;;;29.50;60.80;;;;;;4686345;30;20046;-75
2021/07/08 07:12:48;;;;;;;23.15;10.38;;;29.40;60.70;;;;;;4696152;30;20053;-75
2021/07/08 07:15:16;;;;;;;16.42;7.40;;;29.30;61.50;;;;;;4689235;30;20417;-76
2021/07/08 07:17:42;;;;;;;9.70;5.00;;;29.30;62.10;;;;;;4686416;30;20089;-74
2021/07/08 07:20:10;;;;;;;9.37;5.60;;;29.40;63.00;;;;;;4687958;30;20033;-74
2021/07/08 07:22:37;;;;;;;9.57;5.30;;;29.70;61.60;;;;;;4686198;30;20048;-74
2021/07/08 07:25:07;;;;;;;8.27;4.80;;;29.70;60.90;;;;;;4684022;30;20030;-75
2021/07/08 07:27:33;;;;;;;7.32;4.90;;;29.90;61.00;;;;;;4694274;30;20065;-74
2021/07/08 07:30:02;;;;;;;11.53;5.80;;;30.10;61.30;;;;;;4685646;30;20195;-75
2021/07/08 07:32:30;;;;;;;8.15;5.53;;;30.30;60.40;;;;;;4690535;30;20101;-75
2021/07/08 07:34:56;;;;;;;10.60;5.65;;;30.20;59.60;;;;;;4679772;30;20065;-75
2021/07/08 07:37:22;;;;;;;10.73;6.13;;;30.20;60.80;;;;;;4685131;30;20060;-75
2021/07/08 07:39:47;;;;;;;10.53;6.27;;;30.20;59.00;;;;;;4695156;30;20192;-75
2021/07/08 07:42:13;;;;;;;9.93;6.47;;;30.10;60.80;;;;;;4692954;30;20197;-75
2021/07/08 07:44:43;;;;;;;7.33;5.97;;;30.00;60.50;;;;;;4695359;30;20030;-74
2021/07/08 07:47:10;;;;;;;14.23;6.50;;;30.00;62.50;;;;;;4699703;30;20062;-74
2021/07/08 07:49:37;;;;;;;12.98;7.15;;;30.10;62.00;;;;;;4696500;30;20029;-74
2021/07/08 07:52:05;;;;;;;7.75;5.85;;;30.30;60.60;;;;;;4690069;30;20060;-74
2021/07/08 07:54:35;;;;;;;10.77;6.63;;;30.40;60.50;;;;;;4700535;30;20045;-75
2021/07/08 07:57:04;;;;;;;19.30;6.35;;;30.50;58.70;;;;;;4694110;30;20045;-75
2021/07/08 07:59:31;;;;;;;11.57;7.00;;;30.40;59.70;;;;;;4690379;30;20034;-75
2021/07/08 08:01:56;;;;;;;12.80;6.30;;;30.50;60.10;;;;;;4693399;30;20034;-75
2021/07/08 08:04:25;;;;;;;15.17;6.10;;;30.40;61.20;;;;;;4694134;30;20097;-75
2021/07/08 08:09:35;;;;;;;19.63;7.18;;;30.60;60.50;;;;;;4702043;30;20046;-74
2021/07/08 08:12:02;;;;;;;13.27;6.83;;;30.60;60.60;;;;;;4699282;30;20041;-74
2021/07/08 08:14:27;;;;;;;19.05;6.20;;;30.30;59.90;;;;;;4695962;30;20210;-75
2021/07/08 08:16:53;;;;;;;9.47;5.97;;;30.30;59.20;;;;;;4688817;30;20034;-75
2021/07/08 08:19:19;;;;;;;16.13;6.43;;;30.10;59.20;;;;;;4717060;30;20040;-76
2021/07/08 08:21:45;;;;;;;10.87;5.97;;;30.10;62.00;;;;;;4689734;30;20025;-76
2021/07/08 08:24:11;;;;;;;16.15;6.00;;;30.30;60.90;;;;;;4704693;30;20175;-75
2021/07/08 08:26:36;;;;;;;21.77;7.83;;;30.60;60.50;;;;;;4698553;30;20100;-76
2021/07/08 08:29:02;;;;;;;10.40;5.87;;;30.90;58.90;;;;;;4698773;30;20029;-76
2021/07/08 08:31:28;;;;;;;14.93;6.17;;;31.00;58.10;;;;;;4710726;30;20033;-75
2021/07/08 08:33:54;;;;;;;8.50;5.70;;;30.80;59.20;;;;;;4700296;30;20038;-76
2021/07/08 08:36:19;;;;;;;17.33;5.97;;;30.90;59.40;;;;;;4692635;30;20096;-76
2021/07/08 08:38:45;;;;;;;18.33;5.83;;;31.10;58.40;;;;;;4693897;30;20106;-76
2021/07/08 08:41:11;;;;;;;7.67;5.73;;;31.10;57.70;;;;;;4706676;30;20065;-77
2021/07/08 08:43:37;;;;;;;8.17;5.70;;;31.10;57.80;;;;;;4724610;30;20030;-76
2021/07/08 08:46:03;;;;;;;13.73;5.43;;;31.10;57.30;;;;;;4707125;30;20115;-76
2021/07/08 08:48:29;;;;;;;9.77;4.93;;;30.90;57.90;;;;;;4701593;30;20065;-76
2021/07/08 08:50:55;;;;;;;14.00;6.05;;;30.80;58.80;;;;;;4707724;30;20279;-75
2021/07/08 08:53:21;;;;;;;11.10;5.83;;;30.80;58.60;;;;;;4696308;30;20225;-76
2021/07/08 08:55:48;;;;;;;11.53;5.80;;;30.90;58.40;;;;;;4710216;30;20042;-75
2021/07/08 08:58:16;;;;;;;11.15;5.97;;;30.90;59.10;;;;;;4683001;30;20080;-76
2021/07/08 09:00:49;;;;;;;9.85;5.57;;;31.10;59.60;;;;;;4681066;30;20341;-75
2021/07/08 09:03:26;;;;;;;17.80;5.15;;;31.40;58.80;;;;;;4705438;30;20045;-76
2021/07/08 09:06:00;;;;;;;14.13;6.07;;;31.50;56.90;;;;;;4699397;30;20045;-76
2021/07/08 09:08:27;;;;;;;10.70;5.57;;;31.70;56.20;;;;;;4707381;30;20321;-75
2021/07/08 09:11:01;;;;;;;10.93;4.97;;;31.60;56.40;;;;;;4705041;30;20026;-76
2021/07/08 09:13:28;;;;;;;9.57;4.60;;;31.50;57.60;;;;;;4692814;30;20037;-76
2021/07/08 09:15:54;;;;;;;8.35;5.03;;;31.70;59.20;;;;;;4701245;30;20056;-77
2021/07/08 09:18:26;;;;;;;23.20;5.60;;;31.90;57.00;;;;;;4698967;30;20249;-77
2021/07/08 09:20:52;;;;;;;9.23;4.43;;;32.00;56.50;;;;;;4697772;30;20112;-76
2021/07/08 09:23:18;;;;;;;14.07;5.43;;;32.20;56.70;;;;;;4708884;30;20025;-76
2021/07/08 09:25:46;;;;;;;13.18;4.90;;;32.40;57.00;;;;;;4701163;30;20052;-76
2021/07/08 09:28:23;;;;;;;19.20;5.32;;;32.70;56.60;;;;;;4698127;30;20030;-76
2021/07/08 09:31:00;;;;;;;9.93;5.10;;;32.70;53.60;;;;;;4703224;30;20046;-76
2021/07/08 09:33:35;;;;;;;19.10;5.05;;;32.50;56.80;;;;;;4695101;30;20040;-76
2021/07/08 09:36:27;;;;;;;17.05;5.25;;;32.70;54.80;;;;;;4697049;30;20272;-76
2021/07/08 09:38:57;;;;;;;15.05;5.80;;;32.60;54.90;;;;;;4664110;30;20070;-76
2021/07/08 09:41:24;;;;;;;17.55;4.95;;;32.70;55.00;;;;;;4662390;30;20369;-76
2021/07/08 09:43:51;;;;;;;21.60;5.25;;;32.80;54.60;;;;;;4663947;30;20039;-75
2021/07/08 09:46:31;;;;;;;16.55;5.65;;;32.80;53.90;;;;;;4662259;30;20062;-74
2021/07/08 09:49:06;;;;;;;16.60;5.88;;;33.00;54.70;;;;;;4657958;30;20047;-75
2021/07/08 09:51:33;;;;;;;18.70;5.63;;;33.20;55.00;;;;;;4647020;30;20476;-75
2021/07/08 09:54:08;;;;;;;14.98;5.38;;;33.30;54.40;;;;;;4661392;30;20046;-75
2021/07/08 09:56:43;;;;;;;19.20;5.30;;;33.30;53.50;;;;;;4661517;30;20051;-75
2021/07/08 09:59:09;;;;;;;11.98;5.68;;;33.10;54.40;;;;;;4660235;30;20090;-74
2021/07/08 10:01:35;;;;;;;21.42;5.50;;;33.10;53.60;;;;;;4662206;30;20027;-74
2021/07/08 10:04:01;;;;;;;13.40;5.07;;;33.00;55.30;;;;;;4657136;30;20160;-74
2021/07/08 10:06:30;;;;;;;15.60;5.25;;;33.00;54.60;;;;;;4660649;30;20042;-75
2021/07/08 10:08:57;;;;;;;9.88;5.70;;;33.20;56.40;;;;;;4672002;30;20056;-75
2021/07/08 10:11:24;;;;;;;9.38;4.82;;;33.50;54.80;;;;;;4661635;30;20113;-76
2021/07/08 10:13:50;;;;;;;15.57;6.43;;;33.60;53.90;;;;;;4655866;30;20027;-75
2021/07/08 10:16:17;;;;;;;14.13;5.03;;;33.70;53.40;;;;;;4681856;30;20049;-75
2021/07/08 10:18:45;;;;;;;11.35;5.38;;;34.00;53.90;;;;;;4684718;30;20069;-75
2021/07/08 10:21:12;;;;;;;4.88;4.47;;;34.20;53.50;;;;;;4680900;30;20106;-75
2021/07/08 10:23:40;;;;;;;12.23;5.43;;;34.40;53.20;;;;;;4683844;30;20042;-74
2021/07/08 10:26:09;;;;;;;9.77;4.95;;;34.30;51.90;;;;;;4681050;30;20078;-74
2021/07/08 10:28:39;;;;;;;9.25;4.72;;;34.30;54.00;;;;;;4676329;30;20045;-74
2021/07/08 10:31:06;;;;;;;21.55;5.32;;;34.40;52.60;;;;;;4680289;30;20030;-75
2021/07/08 10:33:32;;;;;;;15.63;4.93;;;34.60;52.00;;;;;;4690319;30;20049;-74
2021/07/08 10:35:59;;;;;;;9.23;4.67;;;34.40;51.50;;;;;;4691714;30;20030;-75
2021/07/08 10:38:30;;;;;;;13.32;5.35;;;34.50;52.60;;;;;;4690215;30;20060;-75
2021/07/08 10:41:29;;;;;;;9.70;4.97;;;34.50;52.40;;;;;;4668036;30;20044;-74
2021/07/08 10:43:54;;;;;;;8.43;5.07;;;34.70;51.20;;;;;;4661094;30;20047;-75
2021/07/08 10:46:37;;;;;;;6.67;4.90;;;34.70;52.00;;;;;;4672151;30;20069;-75
2021/07/08 10:49:13;;;;;;;5.75;4.22;;;34.70;51.80;;;;;;4659537;30;20542;-74
2021/07/08 10:51:42;;;;;;;10.45;5.28;;;34.80;50.80;;;;;;4684852;30;20357;-74
2021/07/08 10:54:23;;;;;;;17.48;5.63;;;34.80;51.80;;;;;;4690177;30;20060;-75
2021/07/08 10:56:49;;;;;;;7.78;4.80;;;34.80;51.50;;;;;;4705358;30;20037;-75
2021/07/08 10:59:15;;;;;;;14.13;4.82;;;35.00;53.10;;;;;;4697197;30;20113;-75
2021/07/08 11:01:45;;;;;;;10.97;4.53;;;35.10;51.80;;;;;;4674760;30;20034;-75
2021/07/08 11:04:12;;;;;;;10.20;4.43;;;35.20;52.40;;;;;;4694324;30;20157;-75
2021/07/08 11:06:41;;;;;;;10.73;4.88;;;35.40;50.20;;;;;;4694141;30;20041;-75
2021/07/08 11:09:21;;;;;;;7.32;4.45;;;35.40;51.30;;;;;;4690835;30;20049;-75
2021/07/08 11:11:48;;;;;;;9.65;4.53;;;35.20;51.50;;;;;;4672897;30;20030;-75
2021/07/08 11:14:16;;;;;;;12.00;5.40;;;35.30;51.50;;;;;;4695214;30;20057;-75
2021/07/08 11:16:45;;;;;;;8.82;4.50;;;35.50;51.30;;;;;;4667710;30;20103;-75
2021/07/08 11:19:12;;;;;;;5.65;4.30;;;35.60;50.60;;;;;;4678947;30;20080;-75
2021/07/08 11:22:03;;;;;;;6.93;4.00;;;35.80;52.00;;;;;;4722714;30;20137;-75
2021/07/08 11:24:32;;;;;;;10.30;3.90;;;36.00;49.10;;;;;;4700971;30;20034;-74
2021/07/08 11:27:03;;;;;;;6.95;4.22;;;36.00;47.90;;;;;;4705300;30;20050;-75
2021/07/08 11:29:44;;;;;;;10.10;4.15;;;36.20;48.20;;;;;;4707893;30;20398;-74
2021/07/08 11:32:47;;;;;;;8.68;4.20;;;36.40;46.90;;;;;;4701917;30;20086;-74
2021/07/08 11:37:41;;;;;;;;;;;36.30;46.20;;;;;;4695195;30;20110;-75
2021/07/08 11:40:13;;;;;;;9.95;3.85;;;36.20;46.40;;;;;;4699725;30;20191;-75
2021/07/08 11:42:41;;;;;;;5.10;3.25;;;36.30;45.80;;;;;;4711076;30;20025;-75
2021/07/08 11:45:15;;;;;;;5.07;3.90;;;36.50;47.00;;;;;;4704295;30;20034;-75
2021/07/08 11:47:42;;;;;;;9.70;4.25;;;36.70;44.50;;;;;;4700503;30;20077;-75
2021/07/08 11:50:18;;;;;;;9.45;3.90;;;36.90;45.30;;;;;;4699832;30;20325;-75
2021/07/08 11:52:46;;;;;;;8.70;3.50;;;37.20;45.80;;;;;;4688832;30;20034;-75
2021/07/08 11:55:12;;;;;;;9.07;3.83;;;37.30;45.60;;;;;;4699356;30;20337;-74
2021/07/08 11:57:58;;;;;;;7.15;3.40;;;37.30;44.20;;;;;;4704682;30;20221;-75
2021/07/08 12:00:27;;;;;;;7.03;4.03;;;37.20;44.00;;;;;;4690560;30;20392;-75
2021/07/08 12:02:53;;;;;;;9.25;4.20;;;37.30;43.70;;;;;;4701396;30;20029;-75
2021/07/08 12:05:21;;;;;;;0.00;0.00;;;37.50;43.80;;;;;;4693745;30;20034;-76
2021/07/08 12:07:50;;;;;;;0.00;0.00;;;37.50;42.50;;;;;;4699632;30;20041;-74
2021/07/08 12:10:23;;;;;;;0.10;0.00;;;37.50;42.40;;;;;;4700260;30;20337;-73
2021/07/08 12:12:52;;;;;;;0.00;0.00;;;37.50;43.00;;;;;;4702479;30;20033;-75
2021/07/08 12:15:17;;;;;;;0.00;0.00;;;37.60;43.00;;;;;;4679265;30;20050;-73
2021/07/08 12:17:43;;;;;;;0.00;0.00;;;37.70;42.50;;;;;;4692973;30;20063;-74
2021/07/08 12:20:10;;;;;;;0.00;0.00;;;37.60;42.80;;;;;;4702515;30;20049;-75
2021/07/08 12:22:55;;;;;;;0.00;0.00;;;37.50;41.80;;;;;;4698102;30;20033;-74
2021/07/08 12:25:23;;;;;;;0.38;0.00;;;37.60;42.70;;;;;;4704907;30;20056;-74
2021/07/08 12:27:50;;;;;;;0.00;0.00;;;37.70;42.40;;;;;;4710931;30;20060;-75
2021/07/08 12:30:23;;;;;;;0.00;0.00;;;37.80;42.10;;;;;;4704601;30;20104;-74
2021/07/08 12:33:10;;;;;;;0.00;0.00;;;37.90;42.50;;;;;;4692723;30;20042;-74
2021/07/08 12:35:54;;;;;;;0.00;0.00;;;38.00;41.80;;;;;;4693278;30;20042;-74
2021/07/08 12:38:20;;;;;;;0.00;0.00;;;38.00;42.40;;;;;;4693653;30;20077;-74
2021/07/08 12:40:47;;;;;;;0.00;0.00;;;38.10;42.30;;;;;;4693876;30;20041;-74
2021/07/08 12:43:19;;;;;;;0.00;0.00;;;38.10;42.70;;;;;;4692759;30;20347;-75
2021/07/08 12:45:45;;;;;;;0.00;0.00;;;38.00;42.60;;;;;;4699166;30;20065;-74
2021/07/08 12:48:14;;;;;;;0.00;0.00;;;37.70;42.30;;;;;;4696339;30;20094;-74
2021/07/08 12:50:43;;;;;;;0.00;0.00;;;37.70;41.60;;;;;;4700936;30;20065;-74
2021/07/08 12:53:13;;;;;;;0.00;0.00;;;37.50;42.10;;;;;;4693931;30;20029;-74
2021/07/08 12:55:44;;;;;;;0.00;0.00;;;37.30;42.60;;;;;;4694044;30;20321;-74
2021/07/08 12:58:14;;;;;;;0.00;0.00;;;37.00;41.90;;;;;;4701431;30;20033;-74
2021/07/08 13:00:40;;;;;;;0.00;0.00;;;36.80;42.60;;;;;;4696790;30;20041;-74
2021/07/08 13:03:25;;;;;;;0.00;0.00;;;36.60;43.30;;;;;;4692622;30;20040;-74
2021/07/08 13:06:05;;;;;;;0.00;0.00;;;36.40;43.30;;;;;;4703990;30;20516;-76
2021/07/08 13:08:31;;;;;;;0.00;0.00;;;36.30;43.10;;;;;;4685107;30;20202;-76
2021/07/08 13:11:07;;;;;;;0.00;0.00;;;36.10;44.30;;;;;;4689727;30;20100;-75
2021/07/08 13:13:33;;;;;;;0.00;0.00;;;36.10;44.10;;;;;;4703606;30;20276;-75
2021/07/08 13:16:00;;;;;;;0.00;0.00;;;36.10;43.80;;;;;;4699116;30;20045;-76
2021/07/08 13:18:35;;;;;;;0.00;0.00;;;36.10;43.70;;;;;;4692997;30;20114;-75
2021/07/08 13:21:12;;;;;;;0.00;0.00;;;36.10;43.70;;;;;;4688821;30;20087;-73
2021/07/08 13:23:38;;;;;;;0.00;0.00;;;36.10;43.90;;;;;;4709630;30;20033;-74
2021/07/08 13:26:20;;;;;;;0.00;0.00;;;36.30;43.80;;;;;;4703769;30;20034;-75
2021/07/08 13:28:47;;;;;;;0.00;0.00;;;36.40;43.00;;;;;;4679603;30;20112;-75
2021/07/08 13:31:26;;;;;;;0.00;0.00;;;36.60;42.80;;;;;;4693056;30;20026;-75
2021/07/08 13:33:55;;;;;;;0.00;0.00;;;36.80;41.20;;;;;;4689709;30;20038;-73
2021/07/08 13:36:22;;;;;;;0.00;0.00;;;37.20;40.70;;;;;;4691780;30;20105;-73
2021/07/08 13:39:07;;;;;;;0.00;0.00;;;37.50;40.90;;;;;;4698520;30;20045;-73
2021/07/08 13:41:37;;;;;;;0.00;0.00;;;37.90;39.60;;;;;;4699736;30;20029;-74
2021/07/08 13:44:06;;;;;;;0.00;0.00;;;38.20;40.10;;;;;;4702897;30;20096;-73
2021/07/08 13:46:39;;;;;;;0.00;0.00;;;38.50;39.50;;;;;;4699279;30;20058;-74
2021/07/08 13:49:20;;;;;;;0.00;0.00;;;38.60;37.80;;;;;;5070566;28;20392;-73
2021/07/08 13:51:49;;;;;;;0.00;0.00;;;38.60;36.90;;;;;;5060065;28;20080;-73
2021/07/08 13:54:31;;;;;;;0.00;0.00;;;38.50;36.60;;;;;;5060000;28;20032;-74
2021/07/08 13:56:57;;;;;;;0.00;0.00;;;38.60;37.10;;;;;;5059531;28;20359;-73
2021/07/08 13:59:22;;;;;;;0.00;0.00;;;38.80;38.00;;;;;;5053447;28;20017;-74
2021/07/08 14:01:48;;;;;;;0.00;0.00;;;39.00;38.40;;;;;;5057245;28;20364;-72
2021/07/08 14:04:15;;;;;;;0.00;0.00;;;39.00;36.60;;;;;;5053840;28;20072;-72
2021/07/08 14:06:40;;;;;;;;;;;38.90;36.50;;;;;;5057391;28;20063;-73
2021/07/08 14:09:06;;;;;;;;;;;38.90;36.10;;;;;;5058455;28;20151;-73
2021/07/08 14:11:32;;;;;;;0.00;0.00;;;38.90;36.40;;;;;;5058171;28;20226;-73
2021/07/08 14:13:59;;;;;;;;;;;38.90;35.80;;;;;;5041592;28;20139;-73
2021/07/08 14:16:26;;;;;;;0.00;0.00;;;38.70;35.90;;;;;;5053381;28;19905;-73
2021/07/08 14:18:53;;;;;;;0.00;0.00;;;38.50;35.30;;;;;;5059199;28;20076;-73
2021/07/08 14:21:20;;;;;;;0.00;0.00;;;38.10;37.10;;;;;;5058584;28;20036;-73
2021/07/08 14:23:47;;;;;;;0.00;0.00;;;38.20;36.20;;;;;;5056169;28;20026;-73
2021/07/08 14:26:14;;;;;;;0.00;0.00;;;38.30;36.80;;;;;;5059338;28;20079;-74
2021/07/08 14:28:40;;;;;;;0.10;0.00;;;38.50;36.10;;;;;;5057542;28;20025;-75
2021/07/08 14:31:06;;;;;;;0.00;0.00;;;38.50;37.40;;;;;;5059025;28;20031;-75
2021/07/08 14:33:33;;;;;;;0.00;0.00;;;38.60;36.60;;;;;;5057947;28;20049;-75
2021/07/08 14:36:00;;;;;;;0.03;0.03;;;38.50;35.60;;;;;;5057310;28;20093;-75
2021/07/08 14:38:27;;;;;;;0.03;0.00;;;38.30;36.20;;;;;;5055202;28;20056;-74
2021/07/08 14:40:53;;;;;;;0.00;0.00;;;38.10;36.20;;;;;;5058648;28;20028;-74
2021/07/08 14:43:36;;;;;;;0.00;0.00;;;37.90;36.10;;;;;;5057446;28;20029;-74
2021/07/08 14:46:07;;;;;;;0.00;0.00;;;37.90;36.00;;;;;;5050800;28;20098;-74
2021/07/08 14:48:34;;;;;;;0.00;0.00;;;37.80;36.10;;;;;;5036083;28;20049;-75
2021/07/08 14:51:00;;;;;;;0.00;0.00;;;37.80;36.60;;;;;;5051184;28;20088;-74
2021/07/08 14:53:26;;;;;;;0.00;0.00;;;37.90;36.30;;;;;;5018081;28;20030;-74
2021/07/08 14:55:52;;;;;;;0.00;0.00;;;37.90;36.30;;;;;;5051818;28;20056;-75
2021/07/08 14:58:18;;;;;;;0.17;0.00;;;37.90;36.40;;;;;;5035794;28;20074;-74
2021/07/08 15:00:44;;;;;;;0.00;0.00;;;37.80;36.80;;;;;;5024877;28;20229;-74
2021/07/08 15:03:10;;;;;;;0.20;0.00;;;37.70;36.80;;;;;;5030567;28;20029;-74
2021/07/08 15:05:36;;;;;;;0.00;0.00;;;37.60;36.80;;;;;;5020358;28;20049;-74
2021/07/08 15:08:02;;;;;;;0.00;0.00;;;37.50;36.30;;;;;;5024642;28;20056;-75
2021/07/08 15:10:28;;;;;;;0.00;0.00;;;37.40;36.40;;;;;;5045581;28;20034;-74
2021/07/08 15:12:57;;;;;;;0.00;0.00;;;37.30;36.40;;;;;;5030853;28;20040;-74
2021/07/08 15:15:25;;;;;;;0.00;0.00;;;37.10;36.70;;;;;;5027109;28;20265;-75
2021/07/08 15:17:52;;;;;;;0.00;0.00;;;36.80;37.40;;;;;;5021992;28;20088;-74
2021/07/08 15:20:18;;;;;;;0.00;0.00;;;36.70;37.70;;;;;;5028773;28;20067;-74
2021/07/08 15:22:45;;;;;;;0.00;0.00;;;36.70;37.60;;;;;;5027068;28;20026;-74
2021/07/08 15:25:12;;;;;;;0.00;0.00;;;36.70;38.10;;;;;;5029167;28;20030;-75
2021/07/08 15:27:38;;;;;;;0.00;0.00;;;36.80;38.00;;;;;;5027763;28;20033;-74
2021/07/08 15:30:05;;;;;;;0.00;0.00;;;36.80;37.60;;;;;;5031462;28;20033;-74
2021/07/08 15:32:31;;;;;;;0.00;0.00;;;36.70;37.60;;;;;;5029260;28;20052;-74
2021/07/08 15:34:58;;;;;;;0.00;0.00;;;36.70;37.30;;;;;;5023667;28;20026;-75
2021/07/08 15:37:27;;;;;;;0.00;0.00;;;36.90;37.70;;;;;;5024578;28;20481;-74
2021/07/08 15:39:54;;;;;;;0.00;0.00;;;37.20;37.70;;;;;;5023617;28;20018;-75
2021/07/08 15:42:20;;;;;;;0.00;0.00;;;37.60;37.60;;;;;;5026097;28;20072;-74